createdAt,value
2018-05-13T00:00:50.619Z,16.83
2018-05-13T00:03:17.053Z,19.00
2018-05-13T00:05:43.415Z,17.63
2018-05-13T00:08:09.867Z,18.37
2018-05-13T00:10:36.433Z,18.87
2018-05-13T00:13:02.839Z,16.60
2018-05-13T00:15:29.237Z,18.27
2018-05-13T00:17:55.902Z,18.50
2018-05-13T00:20:23.297Z,19.33
2018-05-13T00:22:51.504Z,20.13
2018-05-13T00:25:17.938Z,19.90
2018-05-13T00:27:44.377Z,19.27
2018-05-13T00:30:12.784Z,20.27
2018-05-13T00:32:40.634Z,19.87
2018-05-13T00:35:07.124Z,19.80
2018-05-13T00:37:33.985Z,20.60
2018-05-13T00:40:01.176Z,20.10
2018-05-13T00:42:28.176Z,21.00
2018-05-13T00:44:57.897Z,21.10
2018-05-13T00:47:24.837Z,19.87
2018-05-13T00:50:02.138Z,20.13
2018-05-13T00:52:29.576Z,19.00
2018-05-13T00:54:57.375Z,20.60
2018-05-13T00:57:24.112Z,18.30
2018-05-13T00:59:51.639Z,21.00
2018-05-13T01:02:17.999Z,19.07
2018-05-13T01:04:45.834Z,20.23
2018-05-13T01:07:12.304Z,18.57
2018-05-13T01:09:38.741Z,20.10
2018-05-13T01:12:05.129Z,20.00
2018-05-13T01:17:22.624Z,21.20
2018-05-13T01:19:49.286Z,22.13
2018-05-13T01:22:15.466Z,22.77
2018-05-13T01:24:41.768Z,22.57
2018-05-13T01:27:08.429Z,22.77
2018-05-13T01:29:35.014Z,23.00
2018-05-13T01:32:01.272Z,20.97
2018-05-13T01:34:29.339Z,23.93
2018-05-13T01:36:55.513Z,24.87
2018-05-13T01:39:21.815Z,24.50
2018-05-13T01:41:48.781Z,24.53
2018-05-13T01:44:15.112Z,24.00
2018-05-13T01:46:41.487Z,25.67
2018-05-13T01:49:07.719Z,23.90
2018-05-13T01:51:34.747Z,24.30
2018-05-13T01:54:01.350Z,24.17
2018-05-13T01:56:27.655Z,24.20
2018-05-13T01:58:53.847Z,24.47
2018-05-13T02:01:20.615Z,22.90
2018-05-13T02:03:46.823Z,24.37
2018-05-13T02:06:13.175Z,24.97
2018-05-13T02:08:39.781Z,25.50
2018-05-13T02:11:06.021Z,25.10
2018-05-13T02:13:32.378Z,26.23
2018-05-13T02:15:59.282Z,23.60
2018-05-13T02:18:25.570Z,23.70
2018-05-13T02:20:51.999Z,24.63
2018-05-13T02:23:18.333Z,24.27
2018-05-13T02:25:44.661Z,25.07
2018-05-13T02:28:10.929Z,24.00
2018-05-13T02:30:37.204Z,25.33
2018-05-13T02:33:04.301Z,25.70
2018-05-13T02:35:30.939Z,23.80
2018-05-13T02:37:57.292Z,23.17
2018-05-13T02:40:23.928Z,23.70
2018-05-13T02:42:50.849Z,25.03
2018-05-13T02:45:18.298Z,24.40
2018-05-13T02:47:46.454Z,25.20
2018-05-13T02:50:12.771Z,27.70
2018-05-13T02:52:39.092Z,25.30
2018-05-13T02:55:05.356Z,26.90
2018-05-13T02:57:32.425Z,24.63
2018-05-13T02:59:59.591Z,26.20
2018-05-13T03:02:25.813Z,23.00
2018-05-13T03:04:52.099Z,25.47
2018-05-13T03:07:19.898Z,25.77
2018-05-13T03:09:46.108Z,27.17
2018-05-13T03:12:12.411Z,25.50
2018-05-13T03:14:38.755Z,24.50
2018-05-13T03:17:05.029Z,28.87
2018-05-13T03:19:31.252Z,27.63
2018-05-13T03:21:58.274Z,28.37
2018-05-13T03:24:24.583Z,28.00
2018-05-13T03:26:50.870Z,29.50
2018-05-13T03:29:17.121Z,29.67
2018-05-13T03:31:43.373Z,27.00
2018-05-13T03:34:09.647Z,27.37
2018-05-13T03:36:35.909Z,27.83
2018-05-13T03:39:02.624Z,28.60
2018-05-13T03:41:28.911Z,28.73
2018-05-13T03:43:55.136Z,29.70
2018-05-13T03:46:21.311Z,28.03
2018-05-13T03:48:47.500Z,30.27
2018-05-13T03:51:13.730Z,27.93
2018-05-13T03:53:39.951Z,28.90
2018-05-13T03:56:07.281Z,29.67
2018-05-13T03:58:33.636Z,29.37
2018-05-13T04:01:00.358Z,30.03
2018-05-13T04:03:26.562Z,28.23
2018-05-13T04:05:52.913Z,29.90
2018-05-13T04:11:33.450Z,29.13
2018-05-13T04:14:12.472Z,29.80
2018-05-13T04:16:38.778Z,28.80
2018-05-13T04:19:05.800Z,29.87
2018-05-13T04:21:32.826Z,28.60
2018-05-13T04:23:59.295Z,29.93
2018-05-13T04:26:26.018Z,27.40
2018-05-13T04:28:52.479Z,30.37
2018-05-13T04:31:20.642Z,26.30
2018-05-13T04:33:47.658Z,29.43
2018-05-13T04:36:13.874Z,26.97
2018-05-13T04:38:40.204Z,29.77
2018-05-13T04:41:06.548Z,28.67
2018-05-13T04:43:33.896Z,28.07
2018-05-13T04:46:00.184Z,29.20
2018-05-13T04:48:26.559Z,29.23
2018-05-13T04:50:54.296Z,26.17
2018-05-13T04:53:20.616Z,28.87
2018-05-13T04:55:47.301Z,27.80
2018-05-13T04:58:13.903Z,28.87
2018-05-13T05:00:40.235Z,27.40
2018-05-13T05:03:06.465Z,27.03
2018-05-13T05:05:32.767Z,27.60
2018-05-13T05:07:59.695Z,27.27
2018-05-13T05:10:25.917Z,27.07
2018-05-13T05:12:52.153Z,27.00
2018-05-13T05:15:18.968Z,25.10
2018-05-13T05:17:45.245Z,26.30
2018-05-13T05:20:11.425Z,25.50
2018-05-13T05:22:38.955Z,26.40
2018-05-13T05:25:05.377Z,23.77
2018-05-13T05:27:33.340Z,24.10
2018-05-13T05:29:59.613Z,25.20
2018-05-13T05:32:25.869Z,24.80
2018-05-13T05:34:52.807Z,25.10
2018-05-13T05:37:19.445Z,25.40
2018-05-13T05:39:45.682Z,24.03
2018-05-13T05:42:12.826Z,26.67
2018-05-13T05:44:39.161Z,25.93
2018-05-13T05:47:06.240Z,25.27
2018-05-13T05:49:33.608Z,26.43
2018-05-13T05:52:00.267Z,24.70
2018-05-13T05:54:26.880Z,25.73
2018-05-13T05:56:53.518Z,25.30
2018-05-13T05:59:19.905Z,26.50
2018-05-13T06:01:47.657Z,28.40
2018-05-13T06:04:13.879Z,29.00
2018-05-13T06:06:40.724Z,27.73
2018-05-13T06:09:07.117Z,27.00
2018-05-13T06:11:34.092Z,27.90
2018-05-13T06:14:00.387Z,25.93
2018-05-13T06:16:27.022Z,26.10
2018-05-13T06:18:53.983Z,25.57
2018-05-13T06:21:21.058Z,29.13
2018-05-13T06:23:47.476Z,29.43
2018-05-13T06:26:13.957Z,27.00
2018-05-13T06:28:41.003Z,27.43
2018-05-13T06:31:07.276Z,28.10
2018-05-13T06:33:34.965Z,27.17
2018-05-13T06:36:02.017Z,25.43
2018-05-13T06:38:29.066Z,27.80
2018-05-13T06:40:56.140Z,26.60
2018-05-13T06:43:23.606Z,24.90
2018-05-13T06:45:51.595Z,24.63
2018-05-13T06:48:18.202Z,25.57
2018-05-13T06:50:45.161Z,24.17
2018-05-13T06:53:18.784Z,23.60
2018-05-13T06:55:47.262Z,21.97
2018-05-13T06:58:14.159Z,22.37
2018-05-13T07:00:40.383Z,22.37
2018-05-13T07:03:11.372Z,23.33
2018-05-13T07:05:38.364Z,23.13
2018-05-13T07:08:04.535Z,24.23
2018-05-13T07:10:32.565Z,25.17
2018-05-13T07:12:59.144Z,24.73
2018-05-13T07:15:25.335Z,25.47
2018-05-13T07:17:52.036Z,24.27
2018-05-13T07:20:18.325Z,24.20
2018-05-13T07:25:19.748Z,24.80
2018-05-13T07:27:48.337Z,25.23
2018-05-13T07:30:14.814Z,25.10
2018-05-13T07:32:41.637Z,23.93
2018-05-13T07:35:08.332Z,24.00
2018-05-13T07:37:34.902Z,23.77
2018-05-13T07:40:01.812Z,25.00
2018-05-13T07:42:34.746Z,21.63
2018-05-13T07:45:11.101Z,22.20
2018-05-13T07:47:53.821Z,23.23
2018-05-13T07:50:20.226Z,22.90
2018-05-13T07:52:48.084Z,24.60
2018-05-13T07:55:14.677Z,22.97
2018-05-13T07:57:43.094Z,22.27
2018-05-13T08:00:10.782Z,23.60
2018-05-13T08:02:37.308Z,24.37
2018-05-13T08:05:03.825Z,25.70
2018-05-13T08:07:30.488Z,24.73
2018-05-13T08:09:58.039Z,23.70
2018-05-13T08:12:27.429Z,22.70
2018-05-13T08:14:54.172Z,22.63
2018-05-13T08:17:21.735Z,23.57
2018-05-13T08:19:49.125Z,22.17
2018-05-13T08:22:15.645Z,21.00
2018-05-13T08:24:42.262Z,19.50
2018-05-13T08:27:08.873Z,19.80
2018-05-13T08:29:36.205Z,18.90
2018-05-13T08:32:03.596Z,19.13
2018-05-13T08:34:30.136Z,20.73
2018-05-13T08:36:56.723Z,18.17
2018-05-13T08:39:23.131Z,17.47
2018-05-13T08:41:49.541Z,18.40
2018-05-13T08:44:17.229Z,18.30
2018-05-13T08:46:44.885Z,17.43
2018-05-13T08:49:11.376Z,16.70
2018-05-13T08:51:37.829Z,14.07
2018-05-13T08:54:05.064Z,13.63
2018-05-13T08:56:31.850Z,13.37
2018-05-13T08:58:59.949Z,13.33
2018-05-13T09:01:26.826Z,13.50
2018-05-13T09:03:53.998Z,13.87
2018-05-13T09:06:21.000Z,14.30
2018-05-13T09:08:47.858Z,13.40
2018-05-13T09:11:16.025Z,11.90
2018-05-13T09:13:42.478Z,10.27
2018-05-13T09:16:10.449Z,11.87
2018-05-13T09:18:36.884Z,10.43
2018-05-13T09:21:04.191Z,9.93
2018-05-13T09:23:31.461Z,9.20
2018-05-13T09:25:58.586Z,9.60
2018-05-13T09:28:25.410Z,8.87
2018-05-13T09:30:51.962Z,7.10
2018-05-13T09:33:19.167Z,6.80
2018-05-13T09:35:45.578Z,5.37
2018-05-13T09:38:12.167Z,5.23
2018-05-13T09:40:39.712Z,4.80
2018-05-13T09:43:08.014Z,5.37
2018-05-13T09:45:35.676Z,4.93
2018-05-13T09:48:02.202Z,4.00
2018-05-13T09:50:28.816Z,4.43
2018-05-13T09:52:55.482Z,4.00
2018-05-13T09:55:22.427Z,4.60
2018-05-13T09:57:49.684Z,4.47
2018-05-13T10:00:17.372Z,4.33
2018-05-13T10:02:44.905Z,4.00
2018-05-13T10:05:13.135Z,4.10
2018-05-13T10:07:40.436Z,4.30
2018-05-13T10:10:07.694Z,3.53
2018-05-13T10:12:34.381Z,3.80
2018-05-13T10:15:02.265Z,3.83
2018-05-13T10:17:29.379Z,3.60
2018-05-13T10:19:56.864Z,3.97
2018-05-13T10:22:23.901Z,4.20
2018-05-13T10:24:51.569Z,5.03
2018-05-13T10:27:18.224Z,4.40
2018-05-13T10:29:45.067Z,3.90
2018-05-13T10:32:11.719Z,3.80
2018-05-13T10:34:38.740Z,3.80
2018-05-13T10:37:05.384Z,4.00
2018-05-13T10:39:33.049Z,3.70
2018-05-13T10:41:59.542Z,4.20
2018-05-13T10:44:26.919Z,4.20
2018-05-13T10:46:53.953Z,4.30
2018-05-13T10:49:20.454Z,3.90
2018-05-13T10:51:47.198Z,4.77
2018-05-13T10:54:13.751Z,4.10
2018-05-13T10:56:40.263Z,4.50
2018-05-13T10:59:08.314Z,4.20
2018-05-13T11:01:35.126Z,4.07
2018-05-13T11:04:01.724Z,4.80
2018-05-13T11:06:28.722Z,4.20
2018-05-13T11:08:55.889Z,4.40
2018-05-13T11:11:22.829Z,4.50
2018-05-13T11:13:50.056Z,4.13
2018-05-13T11:16:17.209Z,3.83
2018-05-13T11:18:43.776Z,4.30
2018-05-13T11:21:10.199Z,3.73
2018-05-13T11:23:36.858Z,4.20
2018-05-13T11:26:04.131Z,4.23
2018-05-13T11:28:30.745Z,4.17
2018-05-13T11:30:57.243Z,4.50
2018-05-13T11:33:23.863Z,4.13
2018-05-13T11:35:50.684Z,3.90
2018-05-13T11:38:17.212Z,4.37
2018-05-13T11:40:45.027Z,3.63
2018-05-13T11:43:12.777Z,4.53
2018-05-13T11:45:40.611Z,4.43
2018-05-13T11:48:08.198Z,4.60
2018-05-13T11:50:35.375Z,3.73
2018-05-13T11:53:02.367Z,3.60
2018-05-13T11:55:29.077Z,3.90
2018-05-13T11:57:57.521Z,3.80
2018-05-13T12:00:24.861Z,4.43
2018-05-13T12:02:51.272Z,3.73
2018-05-13T12:05:32.859Z,3.90
2018-05-13T12:08:02.200Z,4.20
2018-05-13T12:10:29.010Z,4.43
2018-05-13T12:12:55.617Z,5.23
2018-05-13T12:15:22.422Z,4.97
2018-05-13T12:17:49.629Z,3.70
2018-05-13T12:20:16.517Z,4.77
2018-05-13T12:22:43.369Z,4.30
2018-05-13T12:25:09.850Z,4.40
2018-05-13T12:27:36.535Z,3.90
2018-05-13T12:30:04.733Z,4.37
2018-05-13T12:32:31.309Z,4.30
2018-05-13T12:34:57.958Z,3.80
2018-05-13T12:37:25.259Z,4.40
2018-05-13T12:39:51.670Z,4.37
2018-05-13T12:44:52.407Z,5.13
2018-05-13T12:47:19.594Z,3.93
2018-05-13T12:49:46.107Z,4.13
2018-05-13T12:52:12.601Z,3.87
2018-05-13T12:54:39.546Z,4.17
2018-05-13T12:57:05.975Z,3.80
2018-05-13T12:59:32.440Z,4.23
2018-05-13T13:01:58.964Z,4.50
2018-05-13T13:04:25.817Z,3.90
2018-05-13T13:06:52.978Z,3.77
2018-05-13T13:09:20.082Z,4.50
2018-05-13T13:11:47.932Z,3.90
2018-05-13T13:14:14.437Z,4.80
2018-05-13T13:16:41.120Z,4.10
2018-05-13T13:19:08.303Z,4.77
2018-05-13T13:21:34.911Z,4.00
2018-05-13T13:24:02.233Z,3.87
2018-05-13T13:26:29.040Z,3.70
2018-05-13T13:28:55.881Z,4.10
2018-05-13T13:31:22.378Z,3.37
2018-05-13T13:33:49.646Z,3.83
2018-05-13T13:36:18.257Z,4.80
2018-05-13T13:38:45.307Z,3.67
2018-05-13T13:41:12.423Z,3.73
2018-05-13T13:43:39.269Z,3.63
2018-05-13T13:46:07.027Z,3.60
2018-05-13T13:51:13.468Z,3.87
2018-05-13T13:53:40.014Z,3.93
2018-05-13T13:56:10.092Z,3.57
2018-05-13T13:58:36.565Z,3.67
2018-05-13T14:01:03.244Z,2.90
2018-05-13T14:03:30.134Z,3.73
2018-05-13T14:05:57.105Z,4.00
2018-05-13T14:08:24.342Z,3.40
2018-05-13T14:10:52.118Z,3.70
2018-05-13T14:13:18.710Z,3.40
2018-05-13T14:15:46.159Z,3.50
2018-05-13T14:18:12.716Z,2.73
2018-05-13T14:20:39.447Z,3.00
2018-05-13T14:23:05.972Z,3.40
2018-05-13T15:07:47.475Z,3.27
2018-05-13T15:10:14.019Z,3.20
2018-05-13T15:12:40.514Z,3.23
2018-05-13T15:15:07.037Z,3.53
2018-05-13T15:17:35.385Z,3.47
2018-05-13T15:20:02.033Z,3.00
2018-05-13T15:22:32.969Z,3.03
2018-05-13T15:24:59.624Z,3.87
2018-05-13T15:27:27.836Z,3.70
2018-05-13T15:29:54.907Z,3.13
2018-05-13T15:32:21.694Z,2.83
2018-05-13T15:34:48.442Z,2.67
2018-05-13T15:37:16.101Z,3.30
2018-05-13T15:39:42.925Z,3.20
2018-05-13T15:42:09.691Z,3.10
2018-05-13T15:44:44.034Z,3.17
2018-05-13T15:47:10.575Z,3.37
2018-05-13T15:49:38.709Z,3.23
2018-05-13T15:52:05.318Z,2.90
2018-05-13T15:54:33.490Z,2.80
2018-05-13T15:57:01.128Z,3.17
2018-05-13T15:59:29.182Z,3.17
2018-05-13T16:01:56.056Z,3.37
2018-05-13T16:04:23.309Z,3.40
2018-05-13T16:06:49.814Z,3.73
2018-05-13T16:09:17.959Z,2.97
2018-05-13T16:11:46.130Z,3.20
2018-05-13T16:14:12.673Z,4.10
2018-05-13T16:16:40.362Z,3.80
2018-05-13T16:19:06.858Z,2.90
2018-05-13T16:21:33.295Z,2.87
2018-05-13T16:24:00.014Z,3.23
2018-05-13T16:26:28.233Z,3.13
2018-05-13T16:28:54.790Z,3.00
2018-05-13T16:31:21.248Z,3.27
2018-05-13T16:33:47.656Z,3.60
2018-05-13T16:36:14.340Z,3.40
2018-05-13T16:38:40.760Z,3.20
2018-05-13T16:41:07.409Z,4.00
2018-05-13T16:43:33.887Z,3.70
2018-05-13T16:46:00.354Z,3.83
2018-05-13T16:48:26.750Z,3.50
2018-05-13T16:50:53.160Z,3.47
2018-05-13T16:53:20.010Z,3.00
2018-05-13T16:55:47.043Z,3.50
2018-05-13T16:58:13.901Z,2.80
2018-05-13T17:00:41.134Z,3.00
2018-05-13T17:03:09.195Z,3.40
2018-05-13T17:05:36.130Z,2.97
2018-05-13T17:08:03.782Z,3.13
2018-05-13T17:10:32.086Z,3.47
2018-05-13T17:12:58.805Z,3.40
2018-05-13T17:15:26.094Z,3.00
2018-05-13T17:17:53.403Z,3.30
2018-05-13T17:20:20.600Z,3.30
2018-05-13T17:22:47.947Z,3.47
2018-05-13T17:25:14.541Z,3.97
2018-05-13T17:27:41.743Z,3.03
2018-05-13T17:30:08.243Z,3.60
2018-05-13T17:32:35.494Z,3.43
2018-05-13T17:35:02.084Z,3.87
2018-05-13T17:37:28.797Z,3.67
2018-05-13T17:39:56.033Z,3.90
2018-05-13T17:42:24.245Z,3.63
2018-05-13T17:44:52.597Z,4.00
2018-05-13T17:47:19.115Z,3.70
2018-05-13T17:49:47.448Z,3.83
2018-05-13T17:52:13.996Z,4.33
2018-05-13T17:54:42.297Z,3.53
2018-05-13T17:57:09.304Z,4.10
2018-05-13T17:59:37.541Z,3.70
2018-05-13T18:02:04.193Z,4.00
2018-05-13T18:04:32.446Z,3.50
2018-05-13T18:06:59.206Z,3.50
2018-05-13T18:09:25.830Z,3.37
2018-05-13T18:11:52.651Z,3.23
2018-05-13T18:14:19.762Z,4.30
2018-05-13T18:16:46.571Z,4.20
2018-05-13T18:19:13.495Z,4.30
2018-05-13T18:21:40.210Z,3.27
2018-05-13T18:24:07.063Z,3.47
2018-05-13T18:26:33.599Z,3.40
2018-05-13T18:29:00.510Z,3.50
2018-05-13T18:31:28.766Z,3.80
2018-05-13T18:33:55.893Z,4.00
2018-05-13T18:36:24.062Z,3.80
2018-05-13T18:38:50.821Z,3.83
2018-05-13T18:41:18.192Z,4.20
2018-05-13T18:43:45.498Z,4.00
2018-05-13T18:46:12.078Z,3.63
2018-05-13T18:48:40.534Z,3.50
2018-05-13T18:51:07.020Z,3.57
2018-05-13T18:53:34.114Z,3.80
2018-05-13T18:56:00.556Z,3.20
2018-05-13T18:58:27.153Z,3.40
2018-05-13T19:00:55.337Z,3.60
2018-05-13T19:03:23.640Z,3.77
2018-05-13T19:05:50.172Z,3.90
2018-05-13T19:08:17.281Z,3.93
2018-05-13T19:10:44.279Z,3.50
2018-05-13T19:13:12.675Z,3.30
2018-05-13T19:15:39.082Z,3.57
2018-05-13T19:18:05.590Z,4.00
2018-05-13T19:20:32.097Z,3.63
2018-05-13T19:22:58.603Z,3.63
2018-05-13T19:25:25.121Z,3.83
2018-05-13T19:27:52.368Z,3.20
2018-05-13T19:30:18.803Z,3.57
2018-05-13T19:32:47.031Z,3.53
2018-05-13T19:35:13.536Z,3.70
2018-05-13T19:37:39.962Z,3.53
2018-05-13T19:40:06.708Z,3.23
2018-05-13T19:42:34.680Z,3.73
2018-05-13T19:45:02.107Z,3.93
2018-05-13T19:47:28.874Z,3.20
2018-05-13T19:49:56.748Z,3.83
2018-05-13T19:52:24.062Z,3.20
2018-05-13T19:54:51.288Z,3.67
2018-05-13T19:57:18.361Z,3.63
2018-05-13T19:59:44.860Z,3.50
2018-05-13T20:02:11.497Z,3.70
2018-05-13T20:04:38.124Z,3.70
2018-05-13T20:07:04.728Z,3.50
2018-05-13T20:09:31.702Z,3.67
2018-05-13T20:11:59.402Z,4.73
2018-05-13T20:14:27.714Z,4.80
2018-05-13T20:16:54.328Z,4.37
2018-05-13T20:19:21.004Z,3.43
2018-05-13T20:21:47.705Z,3.90
2018-05-13T20:24:15.315Z,4.33
2018-05-13T20:26:42.289Z,4.27
2018-05-13T20:29:09.316Z,3.80
2018-05-13T20:31:36.107Z,3.87
2018-05-13T20:34:03.556Z,3.77
2018-05-13T20:36:31.361Z,3.97
2018-05-13T20:38:58.993Z,3.80
2018-05-13T20:41:25.533Z,5.17
2018-05-13T20:43:52.803Z,4.13
2018-05-13T20:46:19.458Z,4.03
2018-05-13T20:48:46.187Z,3.60
2018-05-13T20:51:14.006Z,4.40
2018-05-13T20:53:41.371Z,4.30
2018-05-13T20:56:07.917Z,3.60
2018-05-13T20:58:34.587Z,4.20
2018-05-13T21:01:01.160Z,4.07
2018-05-13T21:03:27.724Z,4.17
2018-05-13T21:05:54.285Z,3.90
2018-05-13T21:08:22.523Z,3.90
2018-05-13T21:10:49.205Z,3.63
2018-05-13T21:13:16.112Z,4.60
2018-05-13T21:15:43.071Z,4.53
2018-05-13T21:18:09.945Z,4.67
2018-05-13T21:20:36.647Z,4.07
2018-05-13T21:23:03.259Z,4.30
2018-05-13T21:25:29.770Z,5.03
2018-05-13T21:27:56.734Z,4.20
2018-05-13T21:30:24.064Z,5.37
2018-05-13T21:32:51.307Z,4.10
2018-05-13T21:35:17.833Z,4.53
2018-05-13T21:37:44.784Z,5.20
2018-05-13T21:40:13.026Z,4.50
2018-05-13T21:42:39.593Z,4.70
2018-05-13T21:45:07.356Z,4.80
2018-05-13T21:47:33.964Z,4.50
2018-05-13T21:50:00.716Z,4.40
2018-05-13T21:52:27.261Z,4.97
2018-05-13T21:54:55.325Z,4.70
2018-05-13T21:57:21.865Z,4.33
2018-05-13T21:59:48.411Z,5.07
2018-05-13T22:02:16.644Z,4.70
2018-05-13T22:04:54.331Z,4.60
2018-05-13T22:07:21.777Z,5.23
2018-05-13T22:09:48.292Z,4.80
2018-05-13T22:12:14.810Z,4.60
2018-05-13T22:14:42.433Z,4.30
2018-05-13T22:17:10.000Z,5.73
2018-05-13T22:19:37.233Z,4.37
2018-05-13T22:22:04.413Z,5.17
2018-05-13T22:24:31.781Z,4.43
2018-05-13T22:26:59.186Z,4.87
2018-05-13T22:29:25.783Z,5.10
2018-05-13T22:31:52.445Z,5.70
2018-05-13T22:34:19.660Z,5.70
2018-05-13T22:36:46.131Z,4.60
2018-05-13T22:39:12.665Z,4.87
2018-05-13T22:41:39.204Z,5.00
2018-05-13T22:44:05.542Z,5.70
2018-05-13T22:46:32.821Z,4.37
2018-05-13T22:48:59.248Z,4.70
2018-05-13T22:51:27.045Z,5.07
2018-05-13T22:53:53.405Z,4.30
2018-05-13T22:56:19.838Z,4.40
2018-05-13T22:58:46.546Z,4.60
2018-05-13T23:01:14.007Z,4.83
2018-05-13T23:03:40.510Z,5.07
2018-05-13T23:06:06.969Z,5.60
2018-05-13T23:08:33.487Z,5.77
2018-05-13T23:11:01.627Z,4.60
2018-05-13T23:13:29.728Z,4.80
2018-05-13T23:15:57.249Z,5.13
2018-05-13T23:18:23.753Z,4.57
2018-05-13T23:20:50.201Z,5.87
2018-05-13T23:23:16.585Z,5.80
2018-05-13T23:25:43.013Z,5.10
2018-05-13T23:28:09.857Z,5.10
2018-05-13T23:30:36.230Z,4.60
2018-05-13T23:33:02.638Z,5.27
2018-05-13T23:35:30.810Z,5.10
2018-05-13T23:37:57.604Z,4.90
2018-05-13T23:40:24.685Z,5.03
2018-05-13T23:42:51.073Z,5.07
2018-05-13T23:45:17.444Z,4.97
2018-05-13T23:47:43.809Z,5.93
2018-05-13T23:50:10.518Z,5.30
2018-05-13T23:52:37.358Z,5.20
2018-05-13T23:55:05.312Z,5.70
2018-05-13T23:57:32.839Z,5.03
